createdAt,value
2018-12-13T00:11:56.621Z,2.00
2018-12-13T00:14:24.444Z,1.90
2018-12-13T00:16:51.911Z,1.90
2018-12-13T00:36:41.012Z,1.80
2018-12-13T00:56:30.055Z,2.10
2018-12-13T00:58:57.595Z,2.10
2018-12-13T01:18:45.914Z,2.20
2018-12-13T01:21:20.356Z,2.20
2018-12-13T01:41:04.698Z,2.40
2018-12-13T01:43:32.369Z,2.40
2018-12-13T01:45:59.853Z,2.40
2018-12-13T01:48:27.306Z,2.40
2018-12-13T01:50:55.090Z,2.40
2018-12-13T01:53:22.825Z,2.40
2018-12-13T01:55:50.285Z,2.40
2018-12-13T01:58:17.859Z,2.40
2018-12-13T02:00:45.356Z,2.40
2018-12-13T02:03:12.920Z,2.40
2018-12-13T02:05:40.555Z,2.40
2018-12-13T02:08:08.034Z,2.40
2018-12-13T02:10:35.493Z,2.30
2018-12-13T02:13:03.253Z,2.30
2018-12-13T02:32:51.937Z,2.30
2018-12-13T02:35:19.714Z,2.30
2018-12-13T02:55:09.026Z,2.40
2018-12-13T02:57:36.511Z,2.40
2018-12-13T03:00:05.818Z,2.40
2018-12-13T03:02:33.445Z,2.50
2018-12-13T03:05:01.235Z,2.50
2018-12-13T03:07:28.690Z,2.50
2018-12-13T03:09:56.159Z,2.50
2018-12-13T03:29:45.678Z,2.50
2018-12-13T03:32:13.139Z,2.40
2018-12-13T03:34:40.600Z,2.30
2018-12-13T03:54:29.410Z,2.00
2018-12-13T03:56:56.864Z,2.10
2018-12-13T03:59:24.323Z,2.00
2018-12-13T04:01:51.999Z,2.00
2018-12-13T04:04:19.511Z,2.00
2018-12-13T04:06:46.969Z,2.00
2018-12-13T04:09:14.798Z,2.00
2018-12-13T04:11:42.249Z,2.00
2018-12-13T04:14:09.714Z,2.00
2018-12-13T04:16:37.482Z,2.10
2018-12-13T04:19:04.952Z,2.00
2018-12-13T04:21:32.415Z,2.10
2018-12-13T04:23:59.905Z,2.10
2018-12-13T04:43:48.681Z,1.90
2018-12-13T04:46:16.176Z,1.90
2018-12-13T04:48:43.638Z,2.00
2018-12-13T04:51:11.094Z,2.00
2018-12-13T04:53:38.594Z,1.90
2018-12-13T04:56:06.054Z,1.90
2018-12-13T04:58:33.551Z,1.90
2018-12-13T05:01:01.042Z,1.90
2018-12-13T05:03:29.528Z,1.90
2018-12-13T05:23:19.147Z,1.90
2018-12-13T05:25:46.678Z,1.90
2018-12-13T05:45:35.297Z,2.00
2018-12-13T05:48:02.762Z,1.90
2018-12-13T05:50:30.223Z,1.80
2018-12-13T05:52:57.724Z,1.70
2018-12-13T06:12:46.794Z,1.50
2018-12-13T06:15:14.303Z,1.40
2018-12-13T06:17:41.762Z,1.50
2018-12-13T06:20:09.306Z,1.40
2018-12-13T06:22:36.796Z,1.30
2018-12-13T06:25:04.590Z,1.50
2018-12-13T06:27:32.054Z,1.50
2018-12-13T06:29:59.541Z,1.50
2018-12-13T06:32:26.994Z,1.50
2018-12-13T06:34:54.449Z,1.60
2018-12-13T06:37:21.942Z,1.60
2018-12-13T06:57:11.526Z,1.50
2018-12-13T06:59:39.019Z,1.50
2018-12-13T07:02:06.484Z,1.50
2018-12-13T07:04:33.945Z,1.50
2018-12-13T07:07:01.507Z,1.50
2018-12-13T07:09:28.968Z,1.50
2018-12-13T07:11:56.486Z,1.60
2018-12-13T07:14:23.979Z,1.60
2018-12-13T07:16:51.441Z,1.60
2018-12-13T07:19:18.902Z,1.50
2018-12-13T07:21:46.493Z,1.50
2018-12-13T07:24:13.945Z,1.60
2018-12-13T07:26:41.411Z,1.50
2018-12-13T07:29:08.902Z,1.60
2018-12-13T07:31:36.378Z,1.60
2018-12-13T07:34:03.838Z,1.60
2018-12-13T07:36:31.322Z,1.60
2018-12-13T07:38:58.782Z,1.70
2018-12-13T07:41:26.235Z,1.70
2018-12-13T07:43:53.733Z,1.80
2018-12-13T07:46:21.197Z,1.70
2018-12-13T07:48:48.664Z,1.70
2018-12-13T08:08:37.490Z,1.10
2018-12-13T08:11:04.959Z,1.10
2018-12-13T08:13:32.413Z,1.10
2018-12-13T08:33:20.558Z,1.20
2018-12-13T08:35:48.018Z,1.20
2018-12-13T08:38:15.469Z,1.30
2018-12-13T08:40:42.970Z,1.30
2018-12-13T08:43:10.425Z,1.30
2018-12-13T08:45:37.886Z,1.30
2018-12-13T08:48:05.378Z,1.30
2018-12-13T08:50:32.842Z,1.40
2018-12-13T09:10:22.847Z,1.60
2018-12-13T09:12:50.305Z,1.70
2018-12-13T09:15:17.767Z,1.70
2018-12-13T09:17:45.255Z,1.70
2018-12-13T09:20:12.711Z,1.70
2018-12-13T09:22:40.169Z,1.70
2018-12-13T09:42:29.180Z,2.30
2018-12-13T09:44:56.642Z,2.30
2018-12-13T09:47:24.099Z,2.50
2018-12-13T09:49:51.587Z,2.50
2018-12-13T09:52:19.040Z,2.60
2018-12-13T09:54:46.498Z,2.60
2018-12-13T09:57:13.982Z,2.50
2018-12-13T10:16:35.713Z,3.00
2018-12-13T10:19:03.173Z,3.10
2018-12-13T10:38:53.169Z,3.00
2018-12-13T10:41:20.965Z,3.00
2018-12-13T10:43:48.431Z,3.00
2018-12-13T10:46:15.926Z,2.90
2018-12-13T11:06:04.942Z,2.90
2018-12-13T11:08:32.429Z,2.80
2018-12-13T11:10:59.889Z,2.90
2018-12-13T11:13:27.348Z,3.00
2018-12-13T11:15:54.855Z,3.00
2018-12-13T11:18:22.318Z,3.10
2018-12-13T11:20:49.808Z,3.10
2018-12-13T11:40:39.890Z,3.10
2018-12-13T11:43:07.349Z,3.20
2018-12-13T11:45:34.878Z,3.20
2018-12-13T11:48:02.370Z,3.20
2018-12-13T11:50:29.838Z,3.20
2018-12-13T11:52:57.285Z,3.20
2018-12-13T12:12:46.249Z,3.30
2018-12-13T12:15:13.709Z,3.20
2018-12-13T12:17:41.168Z,3.20
2018-12-13T12:20:08.800Z,3.30
2018-12-13T12:22:36.322Z,3.30
2018-12-13T12:42:25.015Z,3.50
2018-12-13T12:44:52.476Z,3.50
2018-12-13T12:47:19.986Z,3.50
2018-12-13T12:49:47.474Z,3.50
2018-12-13T13:09:35.461Z,3.50
2018-12-13T13:12:03.227Z,3.50
2018-12-13T13:14:30.694Z,3.50
2018-12-13T13:34:19.972Z,3.70
2018-12-13T13:36:47.472Z,3.60
2018-12-13T13:39:14.928Z,3.50
2018-12-13T13:41:42.453Z,3.50
2018-12-13T13:44:10.702Z,3.50
2018-12-13T13:46:38.160Z,3.50
2018-12-13T14:06:27.174Z,3.50
2018-12-13T14:08:54.634Z,3.40
2018-12-13T14:11:22.245Z,3.30
2018-12-13T14:13:49.749Z,3.40
2018-12-13T14:16:17.458Z,3.30
2018-12-13T14:18:44.913Z,3.30
2018-12-13T14:21:12.722Z,3.30
2018-12-13T14:23:40.183Z,3.20
2018-12-13T14:26:07.647Z,3.20
2018-12-13T14:28:35.225Z,3.30
2018-12-13T14:48:58.938Z,3.00
2018-12-13T14:51:26.824Z,3.00
2018-12-13T14:53:54.281Z,3.00
2018-12-13T14:56:21.768Z,2.90
2018-12-13T14:58:49.310Z,3.00
2018-12-13T15:01:16.784Z,2.90
2018-12-13T15:03:44.282Z,2.90
2018-12-13T15:06:11.746Z,2.90
2018-12-13T15:08:39.219Z,2.90
2018-12-13T15:11:07.221Z,2.80
2018-12-13T15:13:38.052Z,2.90
2018-12-13T15:33:26.893Z,2.70
2018-12-13T15:35:54.397Z,2.70
2018-12-13T15:38:21.864Z,2.70
2018-12-13T15:57:28.620Z,2.60
2018-12-13T15:59:56.382Z,2.60
2018-12-13T16:02:23.855Z,2.60
2018-12-13T16:04:51.356Z,2.60
2018-12-13T16:07:18.938Z,2.50
2018-12-13T16:09:46.406Z,2.50
2018-12-13T16:12:13.942Z,2.50
2018-12-13T16:14:41.438Z,2.50
2018-12-13T16:17:08.906Z,2.50
2018-12-13T16:19:36.371Z,2.50
2018-12-13T16:22:04.267Z,2.50
2018-12-13T16:24:31.754Z,2.60
2018-12-13T16:26:59.208Z,2.60
2018-12-13T16:29:26.701Z,2.60
2018-12-13T16:31:54.163Z,2.60
2018-12-13T16:34:21.650Z,2.50
2018-12-13T16:36:49.190Z,2.50
2018-12-13T16:39:16.647Z,2.50
2018-12-13T16:41:44.186Z,2.50
2018-12-13T16:44:11.930Z,2.50
2018-12-13T16:46:39.406Z,2.50
2018-12-13T17:06:27.892Z,2.50
2018-12-13T17:08:55.357Z,2.40
2018-12-13T17:11:22.834Z,2.40
2018-12-13T17:13:50.330Z,2.40
2018-12-13T17:33:38.770Z,2.30
2018-12-13T17:36:06.440Z,2.40
2018-12-13T17:55:55.640Z,2.30
2018-12-13T17:58:23.147Z,2.30
2018-12-13T18:18:11.594Z,2.20
2018-12-13T18:20:39.100Z,2.20
2018-12-13T18:23:06.554Z,2.10
2018-12-13T18:25:34.023Z,2.10
2018-12-13T18:28:01.542Z,2.10
2018-12-13T18:30:29.053Z,2.10
2018-12-13T18:32:56.533Z,2.10
2018-12-13T18:35:24.024Z,2.10
2018-12-13T18:37:51.490Z,2.10
2018-12-13T18:40:18.950Z,2.10
2018-12-13T18:42:46.454Z,2.10
2018-12-13T18:45:13.914Z,2.10
2018-12-13T18:47:41.490Z,2.10
2018-12-13T18:50:08.986Z,2.10
2018-12-13T18:52:36.562Z,2.20
2018-12-13T18:55:04.349Z,2.20
2018-12-13T18:57:31.843Z,2.10
2018-12-13T18:59:59.304Z,2.20
2018-12-13T19:02:26.758Z,2.20
2018-12-13T19:04:54.251Z,2.10
2018-12-13T19:07:21.727Z,2.20
2018-12-13T19:09:49.185Z,2.20
2018-12-13T19:30:33.390Z,2.30
2018-12-13T19:33:00.876Z,2.30
2018-12-13T19:35:28.441Z,2.30
2018-12-13T19:55:17.257Z,2.30
2018-12-13T19:57:44.722Z,2.30
2018-12-13T20:00:12.204Z,2.30
2018-12-13T20:02:39.698Z,2.30
2018-12-13T20:05:07.304Z,2.30
2018-12-13T20:07:34.934Z,2.30
2018-12-13T20:10:02.702Z,2.30
2018-12-13T20:12:30.171Z,2.30
2018-12-13T20:14:57.628Z,2.30
2018-12-13T20:17:25.130Z,2.30
2018-12-13T20:19:52.595Z,2.30
2018-12-13T20:22:20.062Z,2.20
2018-12-13T20:24:47.545Z,2.20
2018-12-13T20:27:15.028Z,2.30
2018-12-13T20:29:42.658Z,2.30
2018-12-13T20:49:31.656Z,2.20
2018-12-13T21:09:20.558Z,2.10
2018-12-13T21:11:48.301Z,2.10
2018-12-13T21:14:15.770Z,2.10
2018-12-13T21:16:43.230Z,2.10
2018-12-13T21:36:31.817Z,1.70
2018-12-13T21:38:59.288Z,1.70
2018-12-13T21:58:49.037Z,1.50
2018-12-13T22:01:16.506Z,1.40
2018-12-13T22:03:43.970Z,1.40
2018-12-13T22:06:11.474Z,1.40
2018-12-13T22:26:00.178Z,1.30
2018-12-13T22:28:27.678Z,1.20
2018-12-13T22:48:16.033Z,1.10
2018-12-13T22:50:43.549Z,1.20
2018-12-13T23:10:32.073Z,1.10
2018-12-13T23:30:20.938Z,1.10
2018-12-13T23:32:48.410Z,1.10
2018-12-13T23:35:15.878Z,1.00
2018-12-13T23:37:43.383Z,1.00
2018-12-13T23:40:10.851Z,1.00
2018-12-13T23:42:38.318Z,1.00
